EZY38KU EGHQ-EGCC
Flight info
| Callsign | EZY38KU |
|---|---|
| Flight time | N/A |
| Altitude | 29000 |
| Route | EPACE DCT ACCOP DCT MOCQO/N0387F280 P16 AXCIS |
| Aircraft | A320/M-SDE2E3FGHIJ1RWXYZ/LB1 |
Departure
| Time | 2026-05-09 08:30 |
|---|---|
| Airport | Cornwall Airport Newquay (EGHQ) |
Arrival
| Time | N/A |
|---|---|
| Airport | Manchester Airport (EGCC) |
| Time | Latitude | Longitude | Altitude | Speed | Heading |
|---|---|---|---|---|---|
| 2026-05-09 08:18 | 50.44682 | -5.00463 | 335 ft | 0 kts | 77° |
| 2026-05-09 08:20 | 50.44681 | -5.00471 | 335 ft | 4 kts | 72° |
| 2026-05-09 08:21 | 50.44668 | -5.00498 | 327 ft | 4 kts | 7° |
| 2026-05-09 08:21 | 50.44645 | -5.00491 | 328 ft | 4 kts | 320° |
| 2026-05-09 08:21 | 50.44637 | -5.00479 | 328 ft | 0 kts | 300° |
| 2026-05-09 08:25 | 50.44640 | -5.00487 | 331 ft | 4 kts | 300° |
| 2026-05-09 08:25 | 50.44668 | -5.00562 | 327 ft | 10 kts | 300° |
| 2026-05-09 08:25 | 50.44706 | -5.00664 | 323 ft | 11 kts | 300° |
| 2026-05-09 08:25 | 50.44749 | -5.00778 | 321 ft | 13 kts | 300° |
| 2026-05-09 08:26 | 50.44795 | -5.00906 | 319 ft | 14 kts | 294° |
| 2026-05-09 08:26 | 50.44796 | -5.01065 | 314 ft | 16 kts | 244° |
| 2026-05-09 08:26 | 50.44718 | -5.01153 | 314 ft | 9 kts | 190° |
| 2026-05-09 08:26 | 50.44675 | -5.01121 | 314 ft | 1 kts | 120° |
| 2026-05-09 08:27 | 50.44667 | -5.01098 | 316 ft | 14 kts | 120° |
| 2026-05-09 08:27 | 50.44520 | -5.00709 | 326 ft | 16 kts | 120° |
| 2026-05-09 08:28 | 50.44503 | -5.00665 | 328 ft | 0 kts | 120° |
| 2026-05-09 08:28 | 50.44503 | -5.00664 | 328 ft | 1 kts | 120° |
| 2026-05-09 08:29 | 50.44492 | -5.00634 | 328 ft | 5 kts | 120° |
| 2026-05-09 08:29 | 50.44475 | -5.00590 | 325 ft | 4 kts | 120° |
| 2026-05-09 08:29 | 50.44433 | -5.00476 | 332 ft | 36 kts | 121° |
| 2026-05-09 08:29 | 50.44166 | -4.99768 | 349 ft | 111 kts | 120° |
| 2026-05-09 08:30 | 50.43701 | -4.98524 | 676 ft | 134 kts | 120° |
| 2026-05-09 08:30 | 50.43230 | -4.97261 | 1430 ft | 135 kts | 119° |
| 2026-05-09 08:30 | 50.42727 | -4.95926 | 1756 ft | 155 kts | 120° |
| 2026-05-09 08:30 | 50.42135 | -4.94317 | 1990 ft | 182 kts | 115° |
| 2026-05-09 08:31 | 50.42011 | -4.92250 | 2265 ft | 211 kts | 75° |
| 2026-05-09 08:31 | 50.42839 | -4.90156 | 2653 ft | 242 kts | 54° |
| 2026-05-09 08:31 | 50.44018 | -4.88202 | 3301 ft | 254 kts | 48° |
| 2026-05-09 08:31 | 50.45310 | -4.86274 | 4185 ft | 259 kts | 47° |
| 2026-05-09 08:32 | 50.46622 | -4.84321 | 5104 ft | 262 kts | 47° |
| 2026-05-09 08:32 | 50.47932 | -4.82311 | 6003 ft | 264 kts | 47° |
| 2026-05-09 08:32 | 50.50533 | -4.78126 | 7697 ft | 271 kts | 48° |
| 2026-05-09 08:33 | 50.51837 | -4.75965 | 8531 ft | 274 kts | 49° |
| 2026-05-09 08:33 | 50.53153 | -4.73764 | 9369 ft | 278 kts | 49° |
| 2026-05-09 08:33 | 50.54480 | -4.71533 | 10178 ft | 281 kts | 48° |
| 2026-05-09 08:33 | 50.55856 | -4.69214 | 10527 ft | 302 kts | 48° |
| 2026-05-09 08:34 | 50.57314 | -4.66752 | 10909 ft | 317 kts | 49° |
| 2026-05-09 08:34 | 50.58839 | -4.64179 | 11497 ft | 326 kts | 48° |
| 2026-05-09 08:34 | 50.60398 | -4.61550 | 12192 ft | 331 kts | 49° |
| 2026-05-09 08:34 | 50.61976 | -4.58888 | 12899 ft | 335 kts | 47° |
| 2026-05-09 08:35 | 50.63581 | -4.56176 | 13597 ft | 340 kts | 48° |
| 2026-05-09 08:35 | 50.65205 | -4.53426 | 14242 ft | 345 kts | 49° |
| 2026-05-09 08:35 | 50.66846 | -4.50648 | 14869 ft | 348 kts | 49° |
| 2026-05-09 08:35 | 50.68504 | -4.47836 | 15491 ft | 352 kts | 49° |
| 2026-05-09 08:36 | 50.70178 | -4.44988 | 16119 ft | 356 kts | 49° |
| 2026-05-09 08:36 | 50.71867 | -4.42114 | 16733 ft | 359 kts | 49° |
| 2026-05-09 08:36 | 50.73574 | -4.39209 | 17348 ft | 363 kts | 49° |
| 2026-05-09 08:36 | 50.75275 | -4.36312 | 17948 ft | 366 kts | 49° |
| 2026-05-09 08:37 | 50.77012 | -4.33351 | 18532 ft | 370 kts | 49° |
| 2026-05-09 08:37 | 50.78767 | -4.30359 | 19062 ft | 373 kts | 49° |
| 2026-05-09 08:37 | 50.80538 | -4.27331 | 19582 ft | 376 kts | 49° |
| 2026-05-09 08:37 | 50.82323 | -4.24277 | 20104 ft | 380 kts | 49° |
| 2026-05-09 08:38 | 50.84121 | -4.21191 | 20619 ft | 383 kts | 49° |
| 2026-05-09 08:38 | 50.85933 | -4.18074 | 21131 ft | 387 kts | 49° |
| 2026-05-09 08:38 | 50.87763 | -4.14924 | 21638 ft | 391 kts | 49° |
| 2026-05-09 08:38 | 50.88985 | -4.12819 | 21986 ft | 393 kts | 48° |
| 2026-05-09 08:39 | 50.91448 | -4.08576 | 22658 ft | 397 kts | 48° |
| 2026-05-09 08:39 | 50.93325 | -4.05340 | 23187 ft | 400 kts | 48° |
| 2026-05-09 08:39 | 50.95216 | -4.02076 | 23673 ft | 404 kts | 48° |
| 2026-05-09 08:39 | 50.97122 | -3.98787 | 24107 ft | 407 kts | 49° |